AirNav   Air Wisconsin Up To $57,000 Bonus
 
 490 users online  

4D9 Alma Municipal Airport
Alma, Nebraska, USA

GOING TO ALMA?


FAA INFORMATION EFFECTIVE 16 JUNE 2022

Location

FAA Identifier: 4D9
Lat/Long: 40-06-44.9000N 099-20-47.1000W
40-06.748333N 099-20.785000W
40.1124722,-99.3464167
(estimated)
Elevation: 2072.8 ft. / 631.8 m (surveyed)
Variation: 05E (2020)
From city: 1 mile NE of ALMA, NE
Time zone: UTC -5 (UTC -6 during Standard Time)
Zip code: 68920

Airport Operations

Airport use: Open to the public
Activation date: 06/1994
Control tower: no
ARTCC: DENVER CENTER
FSS: COLUMBUS FLIGHT SERVICE STATION
NOTAMs facility: OLU (NOTAM-D service available)
Attendance: UNATNDD
Wind indicator: lighted
Segmented circle: yes
Lights: ACTVT MIRL RY 17/35 & PAPI RY 17/35 - CTAF.
Beacon: white-green (lighted land airport)
Operates sunset to sunrise.

Airport Communications

CTAF: 122.9
  • APCH/DEP CTL SVC PRVDD BY DENVER ARTCC (ZDV) ON FREQS 132.7/226.675 (NORTH PLATTE RCAG).

Nearby radio navigation aids

VOR radial/distance  VOR name  Freq  Var
EARr198/(40.0)KEARNEY VOR111.2005E

 
NDB name  Hdg/Dist  Freq  Var  ID
NORTON050/29.423008ENRN -. .-. -.

Airport Services

Fuel available: 100LL
100LL:SELF SVC FUEL AVBL 24 HRS VIA CREDIT CARD SYSTEM.
Parking: tiedowns
Airframe service: NONE
Powerplant service: NONE
Bottled oxygen: NONE
Bulk oxygen: NONE

Runway Information

Runway 17/35

Dimensions: 3200 x 60 ft. / 975 x 18 m
Surface: concrete, in excellent condition
Runway edge lights: medium intensity
RUNWAY 17  RUNWAY 35
Latitude: 40-07.011063N40-06.484212N
Longitude: 099-20.792233W099-20.777062W
Elevation: 2072.8 ft.2062.4 ft.
Traffic pattern: leftleft
Runway heading: 174 magnetic, 179 true354 magnetic, 359 true
Markings: nonprecision, in good conditionnonprecision, in good condition
Visual slope indicator: 2-light PAPI on left (3.00 degrees glide path)2-light PAPI on left (3.00 degrees glide path)
Touchdown point: yes, no lightsyes, no lights
Obstructions: 18 ft. road, 567 ft. from runway, 20:1 slope to clear19 ft. pole, 813 ft. from runway, 326 ft. left of centerline, 32:1 slope to clear

Airport Ownership and Management from official FAA records

Ownership: Publicly-owned
Owner: CITY OF ALMA
PO BOX 468
ALMA, NE 68920-0468
Phone 308-928-2242
Manager: RON HAWLEY
12359 707 ROAD, PO BOX 468
NAPONEE, NE 68910-9608
Phone 308-470-0563

Airport Operational Statistics

Aircraft based on the field: 12
Single engine airplanes: 12
    
Aircraft operations: avg 37/week *
56% local general aviation
44% transient general aviation
* for 12-month period ending 29 May 2019

Additional Remarks

UNMARKED, UNLIGHTED TOWER 6NM NW OF ARPT @ 2458 MSL.
UNMARKED, UNLIGHTED TOWER 6NM NW OF ARPT @ 2458 MSL.
SEGMENTED CIRCLE CONCRETE IN GRND.
FOR CD CTC DENVER ARTCC AT 303-651-4257.

Instrument Procedures

NOTE: All procedures below are presented as PDF files. If you need a reader for these files, you should download the free Adobe Reader.

NOT FOR NAVIGATION. Please procure official charts for flight.
FAA instrument procedures published for use from 16 June 2022 at 0901Z to 14 July 2022 at 0900z.

 
IAPs - Instrument Approach Procedures
RNAV (GPS) RWY 17   download (194KB)
RNAV (GPS) RWY 35   download (189KB)
NOTE: Special Take-Off Minimums/Departure Procedures apply   download (192KB)

Other nearby airports with instrument procedures:

KHDE - Brewster Field Airport (20 nm N)
KPHG - Phillipsburg Municipal Airport (23 nm S)
KNRN - Norton Municipal Airport (30 nm SW)
0V3 - Pioneer Village Field Airport (30 nm NE)
K82 - Smith Center Municipal Airport (33 nm SE)
 
Loc | Ops | Rwys | IFR | FBO | Links
Com | Nav | Svcs | Stats | Notes
Area around 4D9 (Alma Municipal Airport)
 
Road maps at: MapQuest Bing Google
 
Aerial photo
WARNING: Photo may not be current or correct
Aerial photo of 4D9 (Alma Municipal Airport)
Do you have a better or more recent aerial photo of Alma Municipal Airport that you would like to share? If so, please send us your photo.

 
Sectional chart

 
Airport distance calculator
Flying to Alma Municipal Airport? Find the distance to fly.

From to 4D9

Sunrise and sunset
Times for 04-Jul-2022
 Local
(UTC-5)
 Zulu
(UTC)
Morning civil twilight05:4210:42
Sunrise06:1411:14
Sunset21:0902:09
Evening civil twilight21:4202:42

Current date and time
Zulu (UTC)  04-Jul-2022 10:39:36
Local (UTC-5)  04-Jul-2022 05:39:36
 
METAR
KHDE 
20nm N 
041015Z AUTO 18011KT 10SM CLR 23/18 A2983 RMK AO2 T02340181
KNRN 
30nm SW 
041015Z AUTO 21009KT 10SM CLR 26/15 A2987 RMK AO2
KK82 
33nm SE 
041015Z AUTO 18007KT 10SM CLR 23/17 A2987 RMK AO2
KEAR 
40nm NE 
040956Z AUTO 18008KT 10SM FEW070 23/21 A2984 RMK AO2 SLP081 T02330206
TAF
KEAR 
40nm NE 
040526Z 0406/0506 VRB06KT P6SM VCTS BKN020CB OVC070 WS020/21045KT FM040700 14013KT P6SM VCTS SCT045CB OVC090 WS020/21045KT FM040900 15015KT P6SM BKN100 WS020/21045KT FM041300 19014G20KT P6SM SCT100 BKN200 FM050100 17010KT P6SM SCT250
NOTAMs
Click for the latest NOTAMs
NOTAMs are issued by the DoD/FAA and will open in a separate window not controlled by AirNav.

 

 
 

FBO, Fuel Providers, and Aircraft Ground Support

  
 Business Name 
 
 Contact 
 
 Services / Description 
 
Fuel Prices
 
Comments
  
Alma Municipal Airport 308-928-2242
no information available

If you are affiliated with Alma Municipal Airport and would like to show here your services, contact info, web link, logo, and more, click here
100LL
SS $6.10 
 Updated 01-Jul-2022
 
   write
SS=Self service
Update Fuel Prices
 

Would you like to see your business listed on this page?

 If your business provides an interesting product or service to pilots, flight crews, aircraft, or users of the Alma Municipal Airport, you should consider listing it here.  To start the listing process, click on the button below
 
Add a business
 

Other Pages about Alma Municipal Airport

Update a link
 
Copyright © AirNav, LLC. All rights reserved. Privacy Policy  Contact